MSC745 UDYZ-HESH
Flight info
| Callsign | MSC745 |
|---|---|
| Flight time | 1h 6m |
| Altitude | 36000 |
| Route | INDUR B374 ELTOX UN161 ERZ UL615 SIV UT284 EVKIT/N0456F370 UL620 VESAR/N0459F360 DCT PASOS/N0456F370 L550 DATOK J981 NOVPA NOVPA2G |
| Aircraft | A320/M-SDE3FGHIRWY/LB1 |
Departure
| Time | 2026-05-06 12:53 |
|---|---|
| Airport | Zvartnots International Airport (UDYZ) |
Arrival
| Time | 2026-05-06 14:00 |
|---|---|
| Airport | Sharm El Sheikh International Airport (HESH) |
| Time | Latitude | Longitude | Altitude | Speed | Heading |
|---|---|---|---|---|---|
| 2026-05-06 12:27 | 40.15093 | 44.40070 | 2838 ft | 0 kts | 360° |
| 2026-05-06 12:42 | 40.15091 | 44.40070 | 2837 ft | 1 kts | 0° |
| 2026-05-06 12:42 | 40.15075 | 44.40070 | 2837 ft | 3 kts | 4° |
| 2026-05-06 12:43 | 40.15055 | 44.40067 | 2837 ft | 3 kts | 11° |
| 2026-05-06 12:43 | 40.15035 | 44.40061 | 2837 ft | 3 kts | 19° |
| 2026-05-06 12:43 | 40.15016 | 44.40051 | 2837 ft | 3 kts | 29° |
| 2026-05-06 12:43 | 40.15000 | 44.40037 | 2837 ft | 3 kts | 45° |
| 2026-05-06 12:44 | 40.14988 | 44.40017 | 2837 ft | 3 kts | 73° |
| 2026-05-06 12:44 | 40.14986 | 44.40005 | 2837 ft | 0 kts | 89° |
| 2026-05-06 12:44 | 40.14986 | 44.40004 | 2837 ft | 0 kts | 89° |
| 2026-05-06 12:46 | 40.14986 | 44.40009 | 2837 ft | 4 kts | 90° |
| 2026-05-06 12:46 | 40.14986 | 44.40088 | 2837 ft | 8 kts | 89° |
| 2026-05-06 12:47 | 40.14986 | 44.40144 | 2837 ft | 8 kts | 89° |
| 2026-05-06 12:47 | 40.14987 | 44.40281 | 2837 ft | 17 kts | 89° |
| 2026-05-06 12:47 | 40.14989 | 44.40426 | 2838 ft | 14 kts | 89° |
| 2026-05-06 12:47 | 40.14990 | 44.40546 | 2838 ft | 14 kts | 89° |
| 2026-05-06 12:48 | 40.14989 | 44.40689 | 2837 ft | 15 kts | 90° |
| 2026-05-06 12:48 | 40.14990 | 44.40807 | 2837 ft | 10 kts | 89° |
| 2026-05-06 12:48 | 40.14991 | 44.40894 | 2837 ft | 9 kts | 89° |
| 2026-05-06 12:48 | 40.14991 | 44.40955 | 2837 ft | 7 kts | 91° |
| 2026-05-06 12:49 | 40.14992 | 44.41068 | 2838 ft | 13 kts | 89° |
| 2026-05-06 12:49 | 40.14993 | 44.41162 | 2837 ft | 10 kts | 89° |
| 2026-05-06 12:49 | 40.14993 | 44.41234 | 2838 ft | 7 kts | 89° |
| 2026-05-06 12:49 | 40.14994 | 44.41300 | 2838 ft | 7 kts | 90° |
| 2026-05-06 12:50 | 40.14994 | 44.41370 | 2838 ft | 8 kts | 90° |
| 2026-05-06 12:50 | 40.14994 | 44.41442 | 2838 ft | 8 kts | 90° |
| 2026-05-06 12:50 | 40.14995 | 44.41517 | 2838 ft | 8 kts | 88° |
| 2026-05-06 12:50 | 40.14997 | 44.41596 | 2838 ft | 9 kts | 88° |
| 2026-05-06 12:51 | 40.14994 | 44.41678 | 2838 ft | 9 kts | 107° |
| 2026-05-06 12:51 | 40.14948 | 44.41734 | 2838 ft | 9 kts | 147° |
| 2026-05-06 12:51 | 40.14897 | 44.41777 | 2839 ft | 8 kts | 148° |
| 2026-05-06 12:51 | 40.14852 | 44.41814 | 2840 ft | 7 kts | 147° |
| 2026-05-06 12:52 | 40.14820 | 44.41832 | 2843 ft | 3 kts | 167° |
| 2026-05-06 12:52 | 40.14805 | 44.41834 | 2843 ft | 3 kts | 175° |
| 2026-05-06 12:52 | 40.14775 | 44.41822 | 2844 ft | 7 kts | 212° |
| 2026-05-06 12:52 | 40.14744 | 44.41736 | 2843 ft | 15 kts | 265° |
| 2026-05-06 12:53 | 40.14742 | 44.41446 | 2840 ft | 64 kts | 270° |
| 2026-05-06 12:53 | 40.14738 | 44.40506 | 2839 ft | 140 kts | 270° |
| 2026-05-06 12:53 | 40.14729 | 44.39001 | 3117 ft | 177 kts | 269° |
| 2026-05-06 12:53 | 40.14741 | 44.37358 | 4004 ft | 184 kts | 270° |
| 2026-05-06 12:54 | 40.14772 | 44.35653 | 4948 ft | 191 kts | 271° |
| 2026-05-06 12:54 | 40.14771 | 44.33915 | 5670 ft | 194 kts | 266° |
| 2026-05-06 12:54 | 40.14683 | 44.32063 | 5932 ft | 214 kts | 265° |
| 2026-05-06 12:54 | 40.14570 | 44.30095 | 6430 ft | 220 kts | 265° |
| 2026-05-06 12:55 | 40.14455 | 44.28059 | 6924 ft | 231 kts | 265° |
| 2026-05-06 12:55 | 40.14340 | 44.25885 | 7388 ft | 249 kts | 266° |
| 2026-05-06 12:55 | 40.14225 | 44.23537 | 7850 ft | 269 kts | 266° |
| 2026-05-06 12:55 | 40.14106 | 44.21038 | 8307 ft | 280 kts | 266° |
| 2026-05-06 12:56 | 40.13988 | 44.18472 | 8990 ft | 284 kts | 266° |
| 2026-05-06 12:56 | 40.13876 | 44.15873 | 9805 ft | 288 kts | 266° |
| 2026-05-06 12:56 | 40.13753 | 44.13248 | 10498 ft | 294 kts | 266° |
| 2026-05-06 12:56 | 40.13620 | 44.10529 | 11074 ft | 307 kts | 266° |
| 2026-05-06 12:57 | 40.13490 | 44.07691 | 11651 ft | 319 kts | 265° |
| 2026-05-06 12:57 | 40.13342 | 44.04761 | 12220 ft | 327 kts | 265° |
| 2026-05-06 12:57 | 40.13193 | 44.01749 | 12801 ft | 337 kts | 265° |
| 2026-05-06 12:57 | 40.13051 | 43.98654 | 13372 ft | 348 kts | 266° |
| 2026-05-06 12:58 | 40.12916 | 43.95470 | 13946 ft | 353 kts | 266° |
| 2026-05-06 12:58 | 40.12424 | 43.84155 | 16179 ft | 365 kts | 265° |
| 2026-05-06 12:58 | 40.11759 | 43.70730 | 18594 ft | 375 kts | 265° |
| 2026-05-06 12:58 | 40.11056 | 43.56956 | 20772 ft | 383 kts | 265° |
| 2026-05-06 12:59 | 40.10319 | 43.43144 | 22688 ft | 390 kts | 265° |
| 2026-05-06 12:59 | 40.09535 | 43.28894 | 24468 ft | 396 kts | 264° |
| 2026-05-06 12:59 | 40.08699 | 43.14229 | 26033 ft | 403 kts | 264° |
| 2026-05-06 12:59 | 40.07852 | 42.99529 | 27442 ft | 410 kts | 263° |
| 2026-05-06 13:00 | 40.06971 | 42.84594 | 28684 ft | 415 kts | 263° |
| 2026-05-06 13:00 | 40.06061 | 42.69559 | 29975 ft | 415 kts | 263° |
| 2026-05-06 13:00 | 40.05162 | 42.54888 | 31542 ft | 407 kts | 262° |
| 2026-05-06 13:00 | 40.04242 | 42.40232 | 32842 ft | 404 kts | 262° |
| 2026-05-06 13:01 | 40.03242 | 42.25660 | 34088 ft | 402 kts | 262° |
| 2026-05-06 13:01 | 40.02232 | 42.11138 | 35233 ft | 401 kts | 262° |
| 2026-05-06 13:01 | 40.01201 | 41.96616 | 36071 ft | 404 kts | 262° |
| 2026-05-06 13:02 | 39.99056 | 41.67022 | 36065 ft | 410 kts | 262° |
| 2026-05-06 13:02 | 39.96924 | 41.37399 | 36093 ft | 410 kts | 262° |
| 2026-05-06 13:03 | 39.95726 | 41.07706 | 36073 ft | 412 kts | 266° |
| 2026-05-06 13:03 | 39.95640 | 40.77731 | 36074 ft | 415 kts | 266° |
| 2026-05-06 13:04 | 39.95542 | 40.47682 | 36073 ft | 416 kts | 266° |
| 2026-05-06 13:04 | 39.95365 | 40.17439 | 36080 ft | 418 kts | 266° |
| 2026-05-06 13:05 | 39.95094 | 39.87045 | 36071 ft | 420 kts | 266° |
| 2026-05-06 13:05 | 39.94730 | 39.56595 | 36068 ft | 420 kts | 266° |
| 2026-05-06 13:06 | 39.94381 | 39.31320 | 36065 ft | 420 kts | 266° |
| 2026-05-06 13:06 | 39.93919 | 39.00828 | 36065 ft | 421 kts | 266° |
| 2026-05-06 13:07 | 39.92520 | 38.70349 | 36055 ft | 422 kts | 262° |
| 2026-05-06 13:07 | 39.90403 | 38.39724 | 36062 ft | 426 kts | 263° |
| 2026-05-06 13:08 | 39.88187 | 38.08813 | 36098 ft | 430 kts | 263° |
| 2026-05-06 13:08 | 39.85915 | 37.77700 | 36105 ft | 432 kts | 263° |
| 2026-05-06 13:09 | 39.83553 | 37.46548 | 36115 ft | 432 kts | 263° |
| 2026-05-06 13:09 | 39.81087 | 37.15512 | 36110 ft | 431 kts | 263° |
| 2026-05-06 13:10 | 39.75185 | 36.86096 | 36093 ft | 432 kts | 225° |
| 2026-05-06 13:10 | 39.55717 | 36.67438 | 36103 ft | 436 kts | 218° |
| 2026-05-06 13:11 | 39.36000 | 36.49005 | 36108 ft | 438 kts | 218° |
| 2026-05-06 13:11 | 39.16204 | 36.30612 | 36115 ft | 438 kts | 218° |
| 2026-05-06 13:12 | 38.96480 | 36.12412 | 36108 ft | 434 kts | 218° |
| 2026-05-06 13:12 | 38.77006 | 35.94589 | 36108 ft | 432 kts | 218° |
| 2026-05-06 13:13 | 38.57414 | 35.76748 | 36091 ft | 432 kts | 219° |
| 2026-05-06 13:13 | 38.37827 | 35.59048 | 36105 ft | 430 kts | 219° |
| 2026-05-06 13:14 | 38.18229 | 35.41509 | 36097 ft | 430 kts | 219° |
| 2026-05-06 13:14 | 37.98633 | 35.24066 | 36060 ft | 430 kts | 219° |
| 2026-05-06 13:15 | 37.78958 | 35.06688 | 36088 ft | 431 kts | 219° |
| 2026-05-06 13:15 | 37.59308 | 34.89445 | 36061 ft | 430 kts | 219° |
| 2026-05-06 13:16 | 37.39539 | 34.72215 | 36060 ft | 433 kts | 219° |
| 2026-05-06 13:16 | 37.19645 | 34.54986 | 36079 ft | 435 kts | 219° |
| 2026-05-06 13:17 | 36.99711 | 34.37828 | 36062 ft | 434 kts | 219° |
| 2026-05-06 13:17 | 36.79770 | 34.20779 | 36063 ft | 434 kts | 219° |
| 2026-05-06 13:18 | 36.73136 | 34.15136 | 36060 ft | 433 kts | 219° |
| 2026-05-06 13:18 | 36.68144 | 34.10895 | 36071 ft | 435 kts | 219° |
| 2026-05-06 13:19 | 36.63152 | 34.06651 | 36070 ft | 435 kts | 219° |
| 2026-05-06 13:19 | 36.58190 | 34.02443 | 36074 ft | 434 kts | 219° |
| 2026-05-06 13:20 | 36.53193 | 33.98219 | 36071 ft | 434 kts | 219° |
| 2026-05-06 13:20 | 36.48196 | 33.94000 | 36061 ft | 434 kts | 219° |
| 2026-05-06 13:21 | 36.43191 | 33.89788 | 36063 ft | 435 kts | 218° |
| 2026-05-06 13:21 | 36.38183 | 33.85570 | 36061 ft | 435 kts | 219° |
| 2026-05-06 13:22 | 36.33176 | 33.81362 | 36063 ft | 435 kts | 217° |
| 2026-05-06 13:22 | 36.30467 | 33.79632 | 36062 ft | 443 kts | 205° |
| 2026-05-06 13:22 | 36.27455 | 33.78705 | 36061 ft | 452 kts | 191° |
| 2026-05-06 13:22 | 36.24287 | 33.78673 | 36057 ft | 460 kts | 178° |
| 2026-05-06 13:23 | 36.21149 | 33.79583 | 36048 ft | 469 kts | 163° |
| 2026-05-06 13:23 | 36.18213 | 33.81414 | 36045 ft | 476 kts | 152° |
| 2026-05-06 13:23 | 36.15396 | 33.83561 | 36043 ft | 476 kts | 152° |
| 2026-05-06 13:24 | 36.09749 | 33.87867 | 36046 ft | 477 kts | 152° |
| 2026-05-06 13:24 | 36.04087 | 33.92157 | 36039 ft | 477 kts | 153° |
| 2026-05-06 13:25 | 35.98417 | 33.96435 | 36051 ft | 478 kts | 153° |
| 2026-05-06 13:25 | 35.92377 | 33.99512 | 36049 ft | 465 kts | 173° |
| 2026-05-06 13:26 | 35.86029 | 34.00014 | 36329 ft | 453 kts | 191° |
| 2026-05-06 13:26 | 35.82946 | 33.99375 | 36563 ft | 448 kts | 197° |
| 2026-05-06 13:26 | 35.78764 | 33.98286 | 36906 ft | 447 kts | 197° |
| 2026-05-06 13:26 | 35.66603 | 33.95176 | 37127 ft | 439 kts | 197° |
| 2026-05-06 13:27 | 35.54581 | 33.92075 | 37102 ft | 443 kts | 197° |
| 2026-05-06 13:27 | 35.42601 | 33.89005 | 36961 ft | 441 kts | 197° |
| 2026-05-06 13:27 | 35.30656 | 33.85952 | 37078 ft | 434 kts | 198° |
| 2026-05-06 13:28 | 35.06832 | 33.79889 | 36974 ft | 440 kts | 198° |
| 2026-05-06 13:28 | 34.83112 | 33.73902 | 37133 ft | 433 kts | 198° |
| 2026-05-06 13:28 | 34.71272 | 33.70924 | 37023 ft | 434 kts | 198° |
| 2026-05-06 13:29 | 34.59467 | 33.67948 | 37074 ft | 434 kts | 198° |
| 2026-05-06 13:29 | 34.35814 | 33.62040 | 37079 ft | 432 kts | 199° |
| 2026-05-06 13:30 | 34.12324 | 33.56198 | 37068 ft | 430 kts | 199° |
| 2026-05-06 13:30 | 33.88899 | 33.50406 | 37074 ft | 429 kts | 199° |
| 2026-05-06 13:31 | 33.65525 | 33.44668 | 37075 ft | 428 kts | 199° |
| 2026-05-06 13:31 | 33.42194 | 33.38962 | 37078 ft | 427 kts | 199° |
| 2026-05-06 13:32 | 33.19069 | 33.33345 | 37080 ft | 426 kts | 199° |
| 2026-05-06 13:32 | 32.95859 | 33.27752 | 37098 ft | 425 kts | 198° |
| 2026-05-06 13:33 | 32.72695 | 33.22165 | 37084 ft | 424 kts | 198° |
| 2026-05-06 13:33 | 32.49570 | 33.16642 | 37100 ft | 423 kts | 198° |
| 2026-05-06 13:34 | 32.26474 | 33.11138 | 37117 ft | 423 kts | 198° |
| 2026-05-06 13:34 | 32.14583 | 33.10386 | 37114 ft | 435 kts | 185° |
| 2026-05-06 13:34 | 32.02506 | 33.10971 | 37109 ft | 434 kts | 185° |
| 2026-05-06 13:35 | 31.78355 | 33.12176 | 37122 ft | 433 kts | 185° |
| 2026-05-06 13:35 | 31.54315 | 33.13392 | 37108 ft | 431 kts | 185° |
| 2026-05-06 13:36 | 31.30661 | 33.18112 | 37116 ft | 457 kts | 158° |
| 2026-05-06 13:36 | 31.08284 | 33.32166 | 37116 ft | 457 kts | 159° |
| 2026-05-06 13:37 | 30.85903 | 33.46194 | 37115 ft | 456 kts | 159° |
| 2026-05-06 13:37 | 30.63529 | 33.60128 | 37118 ft | 455 kts | 159° |
| 2026-05-06 13:38 | 30.41259 | 33.73939 | 37093 ft | 453 kts | 159° |
| 2026-05-06 13:38 | 30.19060 | 33.87650 | 37092 ft | 451 kts | 159° |
| 2026-05-06 13:39 | 29.96915 | 34.01235 | 37065 ft | 450 kts | 159° |
| 2026-05-06 13:39 | 29.74973 | 34.14628 | 37042 ft | 450 kts | 159° |
| 2026-05-06 13:40 | 29.53230 | 34.29091 | 37018 ft | 455 kts | 154° |
| 2026-05-06 13:40 | 29.32126 | 34.45144 | 37021 ft | 455 kts | 154° |
| 2026-05-06 13:41 | 29.10979 | 34.61175 | 37024 ft | 452 kts | 159° |
| 2026-05-06 13:41 | 28.99735 | 34.61345 | 36991 ft | 398 kts | 213° |
| 2026-05-06 13:41 | 28.96202 | 34.58272 | 36989 ft | 388 kts | 230° |
| 2026-05-06 13:42 | 28.92580 | 34.53703 | 36989 ft | 388 kts | 230° |
| 2026-05-06 13:42 | 28.88674 | 34.49410 | 36695 ft | 394 kts | 219° |
| 2026-05-06 13:42 | 28.86365 | 34.47699 | 36442 ft | 397 kts | 217° |
| 2026-05-06 13:43 | 28.84036 | 34.46006 | 36192 ft | 397 kts | 217° |
| 2026-05-06 13:43 | 28.81708 | 34.44296 | 35942 ft | 400 kts | 217° |
| 2026-05-06 13:43 | 28.79368 | 34.42559 | 35692 ft | 403 kts | 217° |
| 2026-05-06 13:43 | 28.77012 | 34.40802 | 35443 ft | 406 kts | 217° |
| 2026-05-06 13:44 | 28.74642 | 34.39031 | 35190 ft | 408 kts | 217° |
| 2026-05-06 13:44 | 28.72263 | 34.37255 | 34943 ft | 410 kts | 217° |
| 2026-05-06 13:44 | 28.69870 | 34.35474 | 34692 ft | 411 kts | 217° |
| 2026-05-06 13:44 | 28.67471 | 34.33695 | 34439 ft | 412 kts | 217° |
| 2026-05-06 13:45 | 28.65062 | 34.31912 | 34191 ft | 414 kts | 217° |
| 2026-05-06 13:45 | 28.60228 | 34.28332 | 33694 ft | 416 kts | 217° |
| 2026-05-06 13:45 | 28.57802 | 34.26538 | 33437 ft | 417 kts | 217° |
| 2026-05-06 13:46 | 28.55370 | 34.24739 | 33192 ft | 418 kts | 217° |
| 2026-05-06 13:46 | 28.52931 | 34.22930 | 32947 ft | 419 kts | 217° |
| 2026-05-06 13:46 | 28.50479 | 34.21122 | 32740 ft | 421 kts | 217° |
| 2026-05-06 13:46 | 28.48015 | 34.19309 | 32513 ft | 422 kts | 217° |
| 2026-05-06 13:47 | 28.45434 | 34.17672 | 31897 ft | 429 kts | 208° |
| 2026-05-06 13:47 | 28.42596 | 34.16482 | 30453 ft | 437 kts | 203° |
| 2026-05-06 13:47 | 28.39686 | 34.15373 | 28512 ft | 446 kts | 201° |
| 2026-05-06 13:47 | 28.36781 | 34.14291 | 26892 ft | 446 kts | 201° |
| 2026-05-06 13:48 | 28.33844 | 34.13205 | 25340 ft | 441 kts | 201° |
| 2026-05-06 13:48 | 28.30946 | 34.12127 | 23923 ft | 434 kts | 201° |
| 2026-05-06 13:48 | 28.28108 | 34.11066 | 22538 ft | 426 kts | 201° |
| 2026-05-06 13:48 | 28.25317 | 34.10011 | 21150 ft | 420 kts | 201° |
| 2026-05-06 13:49 | 28.22566 | 34.08963 | 19795 ft | 415 kts | 201° |
| 2026-05-06 13:49 | 28.19854 | 34.07927 | 18474 ft | 409 kts | 201° |
| 2026-05-06 13:49 | 28.17179 | 34.06905 | 17149 ft | 404 kts | 201° |
| 2026-05-06 13:49 | 28.14533 | 34.05894 | 15887 ft | 398 kts | 201° |
| 2026-05-06 13:50 | 28.11931 | 34.04900 | 14671 ft | 391 kts | 201° |
| 2026-05-06 13:50 | 28.09376 | 34.03929 | 13498 ft | 384 kts | 200° |
| 2026-05-06 13:50 | 28.06890 | 34.02989 | 12915 ft | 364 kts | 200° |
| 2026-05-06 13:50 | 28.04584 | 34.02123 | 12755 ft | 334 kts | 200° |
| 2026-05-06 13:51 | 28.02463 | 34.01328 | 12596 ft | 310 kts | 200° |
| 2026-05-06 13:51 | 28.00452 | 34.00571 | 12148 ft | 302 kts | 201° |
| 2026-05-06 13:51 | 27.98472 | 33.99822 | 11851 ft | 298 kts | 201° |
| 2026-05-06 13:51 | 27.96512 | 33.99079 | 11485 ft | 296 kts | 200° |
| 2026-05-06 13:52 | 27.94539 | 33.98409 | 11086 ft | 297 kts | 191° |
| 2026-05-06 13:52 | 27.92482 | 33.98585 | 10698 ft | 301 kts | 162° |
| 2026-05-06 13:52 | 27.90720 | 33.99829 | 10124 ft | 302 kts | 134° |
| 2026-05-06 13:52 | 27.89655 | 34.01859 | 9409 ft | 302 kts | 112° |
| 2026-05-06 13:53 | 27.88864 | 34.04063 | 8688 ft | 301 kts | 112° |
| 2026-05-06 13:53 | 27.88089 | 34.06246 | 8010 ft | 297 kts | 112° |
| 2026-05-06 13:53 | 27.87323 | 34.08397 | 7338 ft | 293 kts | 112° |
| 2026-05-06 13:53 | 27.86562 | 34.10519 | 6605 ft | 291 kts | 112° |
| 2026-05-06 13:54 | 27.85801 | 34.12625 | 5836 ft | 288 kts | 112° |
| 2026-05-06 13:54 | 27.85039 | 34.14713 | 5072 ft | 287 kts | 112° |
| 2026-05-06 13:54 | 27.84285 | 34.16772 | 4573 ft | 279 kts | 112° |
| 2026-05-06 13:54 | 27.83560 | 34.18759 | 4385 ft | 268 kts | 112° |
| 2026-05-06 13:55 | 27.82915 | 34.20671 | 4251 ft | 254 kts | 102° |
| 2026-05-06 13:55 | 27.82914 | 34.22567 | 4143 ft | 232 kts | 74° |
| 2026-05-06 13:55 | 27.83600 | 34.24130 | 3835 ft | 219 kts | 48° |
| 2026-05-06 13:55 | 27.84304 | 34.24917 | 3600 ft | 212 kts | 41° |
| 2026-05-06 13:56 | 27.85370 | 34.26035 | 3273 ft | 206 kts | 41° |
| 2026-05-06 13:56 | 27.86359 | 34.27181 | 2958 ft | 201 kts | 45° |
| 2026-05-06 13:56 | 27.87333 | 34.28310 | 2693 ft | 200 kts | 43° |
| 2026-05-06 13:56 | 27.88323 | 34.29371 | 2443 ft | 189 kts | 42° |
| 2026-05-06 13:57 | 27.89263 | 34.30356 | 2182 ft | 179 kts | 43° |
| 2026-05-06 13:57 | 27.90150 | 34.31282 | 1934 ft | 169 kts | 43° |
| 2026-05-06 13:57 | 27.90989 | 34.32155 | 1711 ft | 160 kts | 44° |
| 2026-05-06 13:57 | 27.91790 | 34.32989 | 1505 ft | 153 kts | 44° |
| 2026-05-06 13:58 | 27.92549 | 34.33780 | 1314 ft | 145 kts | 44° |
| 2026-05-06 13:58 | 27.93268 | 34.34529 | 1113 ft | 137 kts | 43° |
| 2026-05-06 13:58 | 27.93963 | 34.35253 | 940 ft | 135 kts | 43° |
| 2026-05-06 13:58 | 27.94650 | 34.35968 | 757 ft | 134 kts | 42° |
| 2026-05-06 13:59 | 27.95334 | 34.36682 | 586 ft | 134 kts | 43° |
| 2026-05-06 13:59 | 27.96019 | 34.37394 | 406 ft | 134 kts | 43° |
| 2026-05-06 13:59 | 27.96704 | 34.38103 | 251 ft | 133 kts | 42° |
| 2026-05-06 13:59 | 27.97371 | 34.38799 | 177 ft | 122 kts | 42° |
| 2026-05-06 14:00 | 27.97886 | 34.39331 | 174 ft | 76 kts | 43° |
| 2026-05-06 14:00 | 27.98152 | 34.39607 | 174 ft | 34 kts | 42° |
| 2026-05-06 14:00 | 27.98292 | 34.39754 | 173 ft | 25 kts | 43° |
| 2026-05-06 14:00 | 27.98414 | 34.39881 | 172 ft | 17 kts | 42° |
| 2026-05-06 14:01 | 27.98503 | 34.39967 | 173 ft | 17 kts | 28° |
| 2026-05-06 14:01 | 27.98593 | 34.39906 | 174 ft | 17 kts | 313° |
| 2026-05-06 14:01 | 27.98619 | 34.39793 | 174 ft | 17 kts | 234° |
| 2026-05-06 14:01 | 27.98536 | 34.39705 | 174 ft | 16 kts | 222° |
| 2026-05-06 14:02 | 27.98453 | 34.39619 | 174 ft | 16 kts | 222° |
| 2026-05-06 14:02 | 27.98370 | 34.39534 | 174 ft | 16 kts | 222° |
| 2026-05-06 14:02 | 27.98290 | 34.39451 | 173 ft | 14 kts | 223° |
| 2026-05-06 14:02 | 27.98296 | 34.39386 | 172 ft | 9 kts | 314° |
| 2026-05-06 14:03 | 27.98338 | 34.39336 | 172 ft | 8 kts | 312° |
| 2026-05-06 14:03 | 27.98375 | 34.39290 | 172 ft | 7 kts | 313° |
| 2026-05-06 14:03 | 27.98383 | 34.39243 | 172 ft | 6 kts | 243° |
| 2026-05-06 14:03 | 27.98356 | 34.39213 | 172 ft | 5 kts | 223° |
| 2026-05-06 14:04 | 27.98330 | 34.39187 | 172 ft | 5 kts | 223° |
| 2026-05-06 14:04 | 27.98305 | 34.39179 | 172 ft | 4 kts | 161° |
| 2026-05-06 14:04 | 27.98286 | 34.39204 | 172 ft | 4 kts | 131° |
| 2026-05-06 14:04 | 27.98269 | 34.39225 | 172 ft | 0 kts | 133° |